sensor_id;sensor_type;location;lat;lon;timestamp;P1;durP1;ratioP1;P2;durP2;ratioP2
23300;SDS011;11819;51.394;12.340;2023-04-24T00:00:06;2.50;;;1.92;;
23300;SDS011;11819;51.394;12.340;2023-04-24T00:02:34;3.22;;;2.28;;
23300;SDS011;11819;51.394;12.340;2023-04-24T00:05:02;3.15;;;2.10;;
23300;SDS011;11819;51.394;12.340;2023-04-24T00:07:29;3.78;;;1.90;;
23300;SDS011;11819;51.394;12.340;2023-04-24T00:09:55;4.00;;;2.28;;
23300;SDS011;11819;51.394;12.340;2023-04-24T00:12:20;3.83;;;2.42;;
23300;SDS011;11819;51.394;12.340;2023-04-24T00:14:46;3.92;;;2.20;;
23300;SDS011;11819;51.394;12.340;2023-04-24T00:17:12;3.45;;;2.30;;
23300;SDS011;11819;51.394;12.340;2023-04-24T00:19:38;3.47;;;2.40;;
23300;SDS011;11819;51.394;12.340;2023-04-24T00:22:05;3.08;;;2.28;;
23300;SDS011;11819;51.394;12.340;2023-04-24T00:24:30;5.18;;;3.05;;
23300;SDS011;11819;51.394;12.340;2023-04-24T00:26:56;4.18;;;2.97;;
23300;SDS011;11819;51.394;12.340;2023-04-24T00:29:23;4.10;;;2.92;;
23300;SDS011;11819;51.394;12.340;2023-04-24T00:31:49;4.40;;;3.00;;
23300;SDS011;11819;51.394;12.340;2023-04-24T00:34:16;6.68;;;3.08;;
23300;SDS011;11819;51.394;12.340;2023-04-24T00:36:43;6.63;;;3.20;;
23300;SDS011;11819;51.394;12.340;2023-04-24T00:39:09;4.45;;;3.00;;
23300;SDS011;11819;51.394;12.340;2023-04-24T00:41:35;5.03;;;3.33;;
23300;SDS011;11819;51.394;12.340;2023-04-24T00:44:01;4.43;;;2.88;;
23300;SDS011;11819;51.394;12.340;2023-04-24T00:46:27;4.57;;;2.85;;
23300;SDS011;11819;51.394;12.340;2023-04-24T00:48:52;4.40;;;2.95;;
23300;SDS011;11819;51.394;12.340;2023-04-24T00:51:18;3.90;;;3.10;;
23300;SDS011;11819;51.394;12.340;2023-04-24T00:53:45;3.88;;;2.75;;
23300;SDS011;11819;51.394;12.340;2023-04-24T00:56:11;4.00;;;2.83;;
23300;SDS011;11819;51.394;12.340;2023-04-24T00:58:37;5.65;;;2.38;;
23300;SDS011;11819;51.394;12.340;2023-04-24T01:01:04;4.50;;;2.60;;
23300;SDS011;11819;51.394;12.340;2023-04-24T01:03:32;3.97;;;2.53;;
23300;SDS011;11819;51.394;12.340;2023-04-24T01:05:58;4.00;;;2.60;;
23300;SDS011;11819;51.394;12.340;2023-04-24T01:08:24;3.35;;;2.30;;
23300;SDS011;11819;51.394;12.340;2023-04-24T01:10:53;3.92;;;2.30;;
23300;SDS011;11819;51.394;12.340;2023-04-24T01:13:19;3.80;;;2.35;;
23300;SDS011;11819;51.394;12.340;2023-04-24T01:15:45;3.45;;;2.08;;
23300;SDS011;11819;51.394;12.340;2023-04-24T01:18:11;3.40;;;2.10;;
23300;SDS011;11819;51.394;12.340;2023-04-24T01:20:39;2.70;;;2.03;;
23300;SDS011;11819;51.394;12.340;2023-04-24T01:23:07;3.25;;;2.38;;
23300;SDS011;11819;51.394;12.340;2023-04-24T01:25:33;3.90;;;2.15;;
23300;SDS011;11819;51.394;12.340;2023-04-24T01:28:00;4.97;;;2.58;;
23300;SDS011;11819;51.394;12.340;2023-04-24T01:30:26;3.50;;;2.25;;
23300;SDS011;11819;51.394;12.340;2023-04-24T01:32:52;2.20;;;1.80;;
23300;SDS011;11819;51.394;12.340;2023-04-24T01:35:18;4.60;;;2.10;;
23300;SDS011;11819;51.394;12.340;2023-04-24T01:37:45;4.95;;;2.13;;
23300;SDS011;11819;51.394;12.340;2023-04-24T01:40:12;2.35;;;1.52;;
23300;SDS011;11819;51.394;12.340;2023-04-24T01:42:37;2.50;;;1.80;;
23300;SDS011;11819;51.394;12.340;2023-04-24T01:45:03;2.42;;;1.85;;
23300;SDS011;11819;51.394;12.340;2023-04-24T01:47:30;5.43;;;1.88;;
23300;SDS011;11819;51.394;12.340;2023-04-24T01:49:57;3.08;;;2.25;;
23300;SDS011;11819;51.394;12.340;2023-04-24T01:52:23;2.83;;;2.05;;
23300;SDS011;11819;51.394;12.340;2023-04-24T01:54:49;5.07;;;2.17;;
23300;SDS011;11819;51.394;12.340;2023-04-24T01:57:16;4.05;;;2.08;;
23300;SDS011;11819;51.394;12.340;2023-04-24T01:59:41;3.15;;;1.70;;
23300;SDS011;11819;51.394;12.340;2023-04-24T02:02:07;2.80;;;1.92;;
23300;SDS011;11819;51.394;12.340;2023-04-24T02:04:34;2.88;;;1.90;;
23300;SDS011;11819;51.394;12.340;2023-04-24T02:07:00;2.55;;;1.83;;
23300;SDS011;11819;51.394;12.340;2023-04-24T02:09:25;3.75;;;2.20;;
23300;SDS011;11819;51.394;12.340;2023-04-24T02:11:51;3.72;;;1.98;;
23300;SDS011;11819;51.394;12.340;2023-04-24T02:14:17;3.03;;;1.90;;
23300;SDS011;11819;51.394;12.340;2023-04-24T02:16:43;4.53;;;1.88;;
23300;SDS011;11819;51.394;12.340;2023-04-24T02:19:09;4.05;;;1.80;;
23300;SDS011;11819;51.394;12.340;2023-04-24T02:21:35;4.03;;;2.00;;
23300;SDS011;11819;51.394;12.340;2023-04-24T02:24:01;3.67;;;2.13;;
23300;SDS011;11819;51.394;12.340;2023-04-24T02:26:27;2.28;;;1.77;;
23300;SDS011;11819;51.394;12.340;2023-04-24T02:28:53;2.53;;;1.67;;
23300;SDS011;11819;51.394;12.340;2023-04-24T02:31:19;3.95;;;2.05;;
23300;SDS011;11819;51.394;12.340;2023-04-24T02:33:46;3.83;;;2.17;;
23300;SDS011;11819;51.394;12.340;2023-04-24T02:36:12;3.50;;;2.20;;
23300;SDS011;11819;51.394;12.340;2023-04-24T02:38:39;3.10;;;2.10;;
23300;SDS011;11819;51.394;12.340;2023-04-24T02:41:05;2.88;;;2.13;;
23300;SDS011;11819;51.394;12.340;2023-04-24T02:43:31;3.97;;;2.30;;
23300;SDS011;11819;51.394;12.340;2023-04-24T02:45:58;3.72;;;2.35;;
23300;SDS011;11819;51.394;12.340;2023-04-24T02:48:24;4.07;;;2.28;;
23300;SDS011;11819;51.394;12.340;2023-04-24T02:50:50;3.72;;;2.20;;
23300;SDS011;11819;51.394;12.340;2023-04-24T02:53:16;3.97;;;2.80;;
23300;SDS011;11819;51.394;12.340;2023-04-24T02:55:41;3.33;;;2.10;;
23300;SDS011;11819;51.394;12.340;2023-04-24T02:58:07;4.53;;;2.60;;
23300;SDS011;11819;51.394;12.340;2023-04-24T03:00:34;3.40;;;2.20;;
23300;SDS011;11819;51.394;12.340;2023-04-24T03:03:00;4.03;;;2.50;;
23300;SDS011;11819;51.394;12.340;2023-04-24T03:05:27;3.40;;;2.50;;
23300;SDS011;11819;51.394;12.340;2023-04-24T03:07:52;3.67;;;2.35;;
23300;SDS011;11819;51.394;12.340;2023-04-24T03:10:20;3.35;;;2.10;;
23300;SDS011;11819;51.394;12.340;2023-04-24T03:12:47;3.80;;;2.67;;
23300;SDS011;11819;51.394;12.340;2023-04-24T03:15:13;4.35;;;2.40;;
23300;SDS011;11819;51.394;12.340;2023-04-24T03:17:38;4.78;;;2.17;;
23300;SDS011;11819;51.394;12.340;2023-04-24T03:20:05;3.95;;;2.13;;
23300;SDS011;11819;51.394;12.340;2023-04-24T03:22:31;4.20;;;2.45;;
23300;SDS011;11819;51.394;12.340;2023-04-24T03:24:58;3.88;;;2.13;;
23300;SDS011;11819;51.394;12.340;2023-04-24T03:27:24;2.60;;;1.95;;
23300;SDS011;11819;51.394;12.340;2023-04-24T03:30:05;4.35;;;2.58;;
23300;SDS011;11819;51.394;12.340;2023-04-24T03:32:46;2.88;;;1.80;;
23300;SDS011;11819;51.394;12.340;2023-04-24T03:35:15;4.13;;;2.30;;
23300;SDS011;11819;51.394;12.340;2023-04-24T03:37:41;3.25;;;2.10;;
23300;SDS011;11819;51.394;12.340;2023-04-24T03:40:27;4.40;;;2.15;;
23300;SDS011;11819;51.394;12.340;2023-04-24T03:42:55;4.85;;;2.47;;
23300;SDS011;11819;51.394;12.340;2023-04-24T03:45:21;4.63;;;2.47;;
23300;SDS011;11819;51.394;12.340;2023-04-24T03:47:49;3.45;;;2.28;;
23300;SDS011;11819;51.394;12.340;2023-04-24T03:50:15;3.78;;;2.30;;
23300;SDS011;11819;51.394;12.340;2023-04-24T03:52:43;2.72;;;2.20;;
23300;SDS011;11819;51.394;12.340;2023-04-24T03:55:24;2.80;;;2.15;;
23300;SDS011;11819;51.394;12.340;2023-04-24T03:57:51;3.10;;;2.20;;
23300;SDS011;11819;51.394;12.340;2023-04-24T04:00:21;4.15;;;2.13;;
23300;SDS011;11819;51.394;12.340;2023-04-24T04:02:53;3.22;;;2.38;;
23300;SDS011;11819;51.394;12.340;2023-04-24T04:05:20;3.33;;;2.38;;
23300;SDS011;11819;51.394;12.340;2023-04-24T04:07:45;4.00;;;2.25;;
23300;SDS011;11819;51.394;12.340;2023-04-24T04:10:11;3.58;;;2.45;;
23300;SDS011;11819;51.394;12.340;2023-04-24T04:12:37;3.53;;;2.25;;
23300;SDS011;11819;51.394;12.340;2023-04-24T04:15:03;2.85;;;2.35;;
23300;SDS011;11819;51.394;12.340;2023-04-24T04:17:31;3.85;;;2.38;;
23300;SDS011;11819;51.394;12.340;2023-04-24T04:19:59;6.00;;;3.30;;
23300;SDS011;11819;51.394;12.340;2023-04-24T04:22:26;5.32;;;3.05;;
23300;SDS011;11819;51.394;12.340;2023-04-24T04:24:52;4.43;;;2.50;;
23300;SDS011;11819;51.394;12.340;2023-04-24T04:27:21;4.30;;;2.67;;
23300;SDS011;11819;51.394;12.340;2023-04-24T04:29:54;3.92;;;2.67;;
23300;SDS011;11819;51.394;12.340;2023-04-24T04:32:22;3.15;;;2.40;;
23300;SDS011;11819;51.394;12.340;2023-04-24T04:34:48;4.95;;;2.83;;
23300;SDS011;11819;51.394;12.340;2023-04-24T04:37:15;5.60;;;3.05;;
23300;SDS011;11819;51.394;12.340;2023-04-24T04:40:00;4.38;;;2.75;;
23300;SDS011;11819;51.394;12.340;2023-04-24T04:42:36;3.72;;;2.85;;
23300;SDS011;11819;51.394;12.340;2023-04-24T04:45:09;6.03;;;3.03;;
23300;SDS011;11819;51.394;12.340;2023-04-24T04:47:48;5.22;;;3.03;;
23300;SDS011;11819;51.394;12.340;2023-04-24T04:50:15;4.38;;;3.13;;
23300;SDS011;11819;51.394;12.340;2023-04-24T04:52:44;4.50;;;2.88;;
23300;SDS011;11819;51.394;12.340;2023-04-24T04:55:24;3.97;;;2.92;;
23300;SDS011;11819;51.394;12.340;2023-04-24T04:58:06;5.28;;;3.38;;
23300;SDS011;11819;51.394;12.340;2023-04-24T05:00:33;4.65;;;3.17;;
23300;SDS011;11819;51.394;12.340;2023-04-24T05:03:10;5.80;;;3.42;;
23300;SDS011;11819;51.394;12.340;2023-04-24T05:05:36;6.45;;;3.63;;
23300;SDS011;11819;51.394;12.340;2023-04-24T05:08:08;6.28;;;3.22;;
23300;SDS011;11819;51.394;12.340;2023-04-24T05:10:35;4.50;;;3.05;;
23300;SDS011;11819;51.394;12.340;2023-04-24T05:13:03;4.80;;;3.28;;
23300;SDS011;11819;51.394;12.340;2023-04-24T05:15:30;5.20;;;3.22;;
23300;SDS011;11819;51.394;12.340;2023-04-24T05:17:57;5.68;;;3.45;;
23300;SDS011;11819;51.394;12.340;2023-04-24T05:20:26;4.78;;;3.53;;
23300;SDS011;11819;51.394;12.340;2023-04-24T05:22:53;4.65;;;2.90;;
23300;SDS011;11819;51.394;12.340;2023-04-24T05:25:20;5.18;;;2.88;;
23300;SDS011;11819;51.394;12.340;2023-04-24T05:27:52;6.65;;;3.03;;
23300;SDS011;11819;51.394;12.340;2023-04-24T05:30:18;5.25;;;3.25;;
23300;SDS011;11819;51.394;12.340;2023-04-24T05:32:45;5.35;;;3.50;;
23300;SDS011;11819;51.394;12.340;2023-04-24T05:35:12;7.47;;;3.30;;
23300;SDS011;11819;51.394;12.340;2023-04-24T05:37:37;7.20;;;4.05;;
23300;SDS011;11819;51.394;12.340;2023-04-24T05:40:04;6.60;;;3.13;;
23300;SDS011;11819;51.394;12.340;2023-04-24T05:42:31;7.43;;;3.47;;
23300;SDS011;11819;51.394;12.340;2023-04-24T05:44:57;5.70;;;3.30;;
23300;SDS011;11819;51.394;12.340;2023-04-24T05:47:25;5.43;;;3.00;;
23300;SDS011;11819;51.394;12.340;2023-04-24T05:49:52;3.90;;;2.53;;
23300;SDS011;11819;51.394;12.340;2023-04-24T05:52:19;7.38;;;3.33;;
23300;SDS011;11819;51.394;12.340;2023-04-24T05:54:47;4.57;;;3.05;;
23300;SDS011;11819;51.394;12.340;2023-04-24T05:57:18;6.40;;;3.10;;
23300;SDS011;11819;51.394;12.340;2023-04-24T05:59:50;4.03;;;2.63;;
23300;SDS011;11819;51.394;12.340;2023-04-24T06:02:17;5.03;;;2.85;;
23300;SDS011;11819;51.394;12.340;2023-04-24T06:04:43;3.28;;;2.47;;
23300;SDS011;11819;51.394;12.340;2023-04-24T06:07:10;5.72;;;2.88;;
23300;SDS011;11819;51.394;12.340;2023-04-24T06:09:37;4.75;;;2.55;;
23300;SDS011;11819;51.394;12.340;2023-04-24T06:12:03;2.70;;;1.80;;
23300;SDS011;11819;51.394;12.340;2023-04-24T06:14:43;3.90;;;2.42;;
23300;SDS011;11819;51.394;12.340;2023-04-24T06:17:15;5.43;;;2.50;;
23300;SDS011;11819;51.394;12.340;2023-04-24T06:19:41;2.88;;;2.08;;
23300;SDS011;11819;51.394;12.340;2023-04-24T06:22:07;5.05;;;2.42;;
23300;SDS011;11819;51.394;12.340;2023-04-24T06:24:33;3.83;;;2.10;;
23300;SDS011;11819;51.394;12.340;2023-04-24T06:26:59;4.47;;;2.55;;
23300;SDS011;11819;51.394;12.340;2023-04-24T06:29:26;4.10;;;2.38;;
23300;SDS011;11819;51.394;12.340;2023-04-24T06:31:52;3.05;;;2.55;;
23300;SDS011;11819;51.394;12.340;2023-04-24T06:34:18;4.55;;;2.33;;
23300;SDS011;11819;51.394;12.340;2023-04-24T06:36:46;2.90;;;2.40;;
23300;SDS011;11819;51.394;12.340;2023-04-24T06:39:12;4.22;;;2.38;;
23300;SDS011;11819;51.394;12.340;2023-04-24T06:41:38;3.70;;;2.22;;
23300;SDS011;11819;51.394;12.340;2023-04-24T06:44:05;6.85;;;2.53;;
23300;SDS011;11819;51.394;12.340;2023-04-24T06:46:30;5.80;;;2.50;;
23300;SDS011;11819;51.394;12.340;2023-04-24T06:48:56;3.35;;;2.28;;
23300;SDS011;11819;51.394;12.340;2023-04-24T06:51:23;3.75;;;2.38;;
23300;SDS011;11819;51.394;12.340;2023-04-24T06:53:50;5.13;;;2.67;;
23300;SDS011;11819;51.394;12.340;2023-04-24T06:56:16;4.72;;;3.00;;
23300;SDS011;11819;51.394;12.340;2023-04-24T06:58:42;4.07;;;2.58;;
23300;SDS011;11819;51.394;12.340;2023-04-24T07:01:09;4.07;;;2.67;;
23300;SDS011;11819;51.394;12.340;2023-04-24T07:03:36;4.25;;;3.00;;
23300;SDS011;11819;51.394;12.340;2023-04-24T07:06:01;4.00;;;2.72;;
23300;SDS011;11819;51.394;12.340;2023-04-24T07:08:29;5.88;;;2.80;;
23300;SDS011;11819;51.394;12.340;2023-04-24T07:10:57;4.28;;;2.50;;
23300;SDS011;11819;51.394;12.340;2023-04-24T07:13:24;5.15;;;2.47;;
23300;SDS011;11819;51.394;12.340;2023-04-24T07:15:51;5.97;;;2.85;;
23300;SDS011;11819;51.394;12.340;2023-04-24T07:18:20;5.53;;;2.70;;
23300;SDS011;11819;51.394;12.340;2023-04-24T07:20:46;5.88;;;2.85;;
23300;SDS011;11819;51.394;12.340;2023-04-24T07:23:12;5.22;;;2.72;;
23300;SDS011;11819;51.394;12.340;2023-04-24T07:25:37;5.47;;;2.90;;
23300;SDS011;11819;51.394;12.340;2023-04-24T07:28:04;5.45;;;2.60;;
23300;SDS011;11819;51.394;12.340;2023-04-24T07:30:30;5.47;;;3.30;;
23300;SDS011;11819;51.394;12.340;2023-04-24T07:32:58;4.03;;;2.47;;
23300;SDS011;11819;51.394;12.340;2023-04-24T07:35:24;4.05;;;2.72;;
23300;SDS011;11819;51.394;12.340;2023-04-24T07:37:53;4.38;;;2.70;;
23300;SDS011;11819;51.394;12.340;2023-04-24T07:40:18;4.70;;;2.33;;
23300;SDS011;11819;51.394;12.340;2023-04-24T07:42:46;3.92;;;2.65;;
23300;SDS011;11819;51.394;12.340;2023-04-24T07:45:14;5.82;;;2.65;;
23300;SDS011;11819;51.394;12.340;2023-04-24T07:47:41;5.35;;;2.33;;
23300;SDS011;11819;51.394;12.340;2023-04-24T07:50:09;4.68;;;2.33;;
23300;SDS011;11819;51.394;12.340;2023-04-24T07:52:36;4.22;;;2.35;;
23300;SDS011;11819;51.394;12.340;2023-04-24T07:55:01;2.80;;;1.95;;
23300;SDS011;11819;51.394;12.340;2023-04-24T07:57:28;4.05;;;2.35;;
23300;SDS011;11819;51.394;12.340;2023-04-24T07:59:54;4.10;;;2.50;;
23300;SDS011;11819;51.394;12.340;2023-04-24T08:02:20;3.58;;;2.38;;
23300;SDS011;11819;51.394;12.340;2023-04-24T08:04:51;4.43;;;2.70;;
23300;SDS011;11819;51.394;12.340;2023-04-24T08:07:20;3.47;;;1.70;;
23300;SDS011;11819;51.394;12.340;2023-04-24T08:09:46;9.15;;;4.13;;
23300;SDS011;11819;51.394;12.340;2023-04-24T08:12:13;5.32;;;2.72;;
23300;SDS011;11819;51.394;12.340;2023-04-24T08:14:40;4.72;;;2.00;;
23300;SDS011;11819;51.394;12.340;2023-04-24T08:17:07;3.50;;;2.13;;
23300;SDS011;11819;51.394;12.340;2023-04-24T08:19:33;3.42;;;2.47;;
23300;SDS011;11819;51.394;12.340;2023-04-24T08:21:59;2.30;;;1.90;;
23300;SDS011;11819;51.394;12.340;2023-04-24T08:24:24;3.03;;;2.00;;
23300;SDS011;11819;51.394;12.340;2023-04-24T08:26:50;2.92;;;2.08;;
23300;SDS011;11819;51.394;12.340;2023-04-24T08:29:16;2.58;;;1.50;;
23300;SDS011;11819;51.394;12.340;2023-04-24T08:31:45;3.50;;;1.92;;
23300;SDS011;11819;51.394;12.340;2023-04-24T08:34:11;2.70;;;1.80;;
23300;SDS011;11819;51.394;12.340;2023-04-24T08:36:37;2.15;;;1.77;;
23300;SDS011;11819;51.394;12.340;2023-04-24T08:39:05;3.25;;;1.58;;
23300;SDS011;11819;51.394;12.340;2023-04-24T08:41:33;2.53;;;1.42;;
23300;SDS011;11819;51.394;12.340;2023-04-24T08:44:01;2.17;;;1.50;;
23300;SDS011;11819;51.394;12.340;2023-04-24T08:46:27;2.83;;;1.98;;
23300;SDS011;11819;51.394;12.340;2023-04-24T08:48:54;2.97;;;1.50;;
23300;SDS011;11819;51.394;12.340;2023-04-24T08:51:22;2.13;;;1.30;;
23300;SDS011;11819;51.394;12.340;2023-04-24T08:53:51;2.33;;;1.65;;
23300;SDS011;11819;51.394;12.340;2023-04-24T08:56:20;1.67;;;1.42;;
23300;SDS011;11819;51.394;12.340;2023-04-24T08:58:48;2.97;;;1.60;;
23300;SDS011;11819;51.394;12.340;2023-04-24T09:01:18;3.45;;;1.63;;
23300;SDS011;11819;51.394;12.340;2023-04-24T09:03:47;4.25;;;1.60;;
23300;SDS011;11819;51.394;12.340;2023-04-24T09:06:14;4.03;;;1.60;;
23300;SDS011;11819;51.394;12.340;2023-04-24T09:08:42;1.95;;;1.70;;
23300;SDS011;11819;51.394;12.340;2023-04-24T09:11:10;2.28;;;1.50;;
23300;SDS011;11819;51.394;12.340;2023-04-24T09:13:37;2.47;;;1.40;;
23300;SDS011;11819;51.394;12.340;2023-04-24T09:16:03;2.80;;;1.70;;
23300;SDS011;11819;51.394;12.340;2023-04-24T09:18:29;2.80;;;1.77;;
23300;SDS011;11819;51.394;12.340;2023-04-24T09:23:28;2.10;;;1.58;;
23300;SDS011;11819;51.394;12.340;2023-04-24T09:25:55;2.08;;;1.65;;
23300;SDS011;11819;51.394;12.340;2023-04-24T09:28:25;2.60;;;1.70;;
23300;SDS011;11819;51.394;12.340;2023-04-24T09:31:01;2.47;;;1.83;;
23300;SDS011;11819;51.394;12.340;2023-04-24T09:33:38;3.40;;;1.90;;
23300;SDS011;11819;51.394;12.340;2023-04-24T09:36:04;3.08;;;1.98;;
23300;SDS011;11819;51.394;12.340;2023-04-24T09:38:37;2.38;;;2.10;;
23300;SDS011;11819;51.394;12.340;2023-04-24T09:41:07;3.88;;;1.90;;
23300;SDS011;11819;51.394;12.340;2023-04-24T09:43:33;2.65;;;2.03;;
23300;SDS011;11819;51.394;12.340;2023-04-24T09:46:03;4.03;;;1.90;;
23300;SDS011;11819;51.394;12.340;2023-04-24T09:48:34;2.60;;;1.70;;
23300;SDS011;11819;51.394;12.340;2023-04-24T09:51:03;3.92;;;2.00;;
23300;SDS011;11819;51.394;12.340;2023-04-24T09:53:31;2.80;;;2.10;;
23300;SDS011;11819;51.394;12.340;2023-04-24T09:56:06;2.75;;;1.90;;
23300;SDS011;11819;51.394;12.340;2023-04-24T09:58:37;4.00;;;2.00;;
23300;SDS011;11819;51.394;12.340;2023-04-24T10:01:03;3.03;;;1.80;;
23300;SDS011;11819;51.394;12.340;2023-04-24T10:03:32;1.60;;;1.40;;
23300;SDS011;11819;51.394;12.340;2023-04-24T10:06:02;2.58;;;1.58;;
23300;SDS011;11819;51.394;12.340;2023-04-24T10:08:34;3.55;;;1.80;;
23300;SDS011;11819;51.394;12.340;2023-04-24T10:11:00;3.10;;;1.77;;
23300;SDS011;11819;51.394;12.340;2023-04-24T10:13:26;2.72;;;1.52;;
23300;SDS011;11819;51.394;12.340;2023-04-24T10:15:53;4.78;;;1.98;;
23300;SDS011;11819;51.394;12.340;2023-04-24T10:18:19;3.50;;;2.05;;
23300;SDS011;11819;51.394;12.340;2023-04-24T10:20:46;2.80;;;1.90;;
23300;SDS011;11819;51.394;12.340;2023-04-24T10:23:12;4.05;;;1.92;;
23300;SDS011;11819;51.394;12.340;2023-04-24T10:25:37;1.95;;;1.58;;
23300;SDS011;11819;51.394;12.340;2023-04-24T10:28:03;2.78;;;1.55;;
23300;SDS011;11819;51.394;12.340;2023-04-24T10:30:31;3.95;;;1.85;;
23300;SDS011;11819;51.394;12.340;2023-04-24T10:33:01;2.38;;;1.70;;
23300;SDS011;11819;51.394;12.340;2023-04-24T10:35:32;4.47;;;1.88;;
23300;SDS011;11819;51.394;12.340;2023-04-24T10:38:12;2.47;;;1.65;;
23300;SDS011;11819;51.394;12.340;2023-04-24T10:40:39;3.35;;;1.90;;
23300;SDS011;11819;51.394;12.340;2023-04-24T10:43:05;4.63;;;2.40;;
23300;SDS011;11819;51.394;12.340;2023-04-24T10:45:36;4.38;;;1.92;;
23300;SDS011;11819;51.394;12.340;2023-04-24T10:48:04;3.85;;;1.75;;
23300;SDS011;11819;51.394;12.340;2023-04-24T10:50:43;3.67;;;2.30;;
23300;SDS011;11819;51.394;12.340;2023-04-24T10:53:17;2.33;;;1.67;;
23300;SDS011;11819;51.394;12.340;2023-04-24T10:55:45;3.17;;;1.80;;
23300;SDS011;11819;51.394;12.340;2023-04-24T10:58:15;3.55;;;1.83;;
23300;SDS011;11819;51.394;12.340;2023-04-24T11:00:42;3.17;;;1.80;;
23300;SDS011;11819;51.394;12.340;2023-04-24T11:03:23;3.25;;;2.00;;
23300;SDS011;11819;51.394;12.340;2023-04-24T11:06:06;2.67;;;1.90;;
23300;SDS011;11819;51.394;12.340;2023-04-24T11:08:38;3.03;;;1.73;;
23300;SDS011;11819;51.394;12.340;2023-04-24T11:11:16;7.68;;;1.98;;
23300;SDS011;11819;51.394;12.340;2023-04-24T11:16:32;3.75;;;1.88;;
23300;SDS011;11819;51.394;12.340;2023-04-24T11:19:03;2.55;;;1.70;;
23300;SDS011;11819;51.394;12.340;2023-04-24T11:22:13;3.78;;;2.10;;
23300;SDS011;11819;51.394;12.340;2023-04-24T11:24:48;2.85;;;2.00;;
23300;SDS011;11819;51.394;12.340;2023-04-24T11:27:22;6.55;;;2.03;;
23300;SDS011;11819;51.394;12.340;2023-04-24T11:29:58;3.03;;;2.20;;
23300;SDS011;11819;51.394;12.340;2023-04-24T11:32:26;3.88;;;2.08;;
23300;SDS011;11819;51.394;12.340;2023-04-24T11:35:05;2.80;;;2.30;;
23300;SDS011;11819;51.394;12.340;2023-04-24T11:37:37;3.75;;;2.10;;
23300;SDS011;11819;51.394;12.340;2023-04-24T11:40:05;2.70;;;2.08;;
23300;SDS011;11819;51.394;12.340;2023-04-24T11:42:36;4.18;;;1.88;;
23300;SDS011;11819;51.394;12.340;2023-04-24T11:45:13;2.78;;;2.22;;
23300;SDS011;11819;51.394;12.340;2023-04-24T11:47:42;4.82;;;2.15;;
23300;SDS011;11819;51.394;12.340;2023-04-24T11:50:10;4.88;;;2.15;;
23300;SDS011;11819;51.394;12.340;2023-04-24T11:52:38;3.17;;;1.90;;
23300;SDS011;11819;51.394;12.340;2023-04-24T11:55:12;3.63;;;1.95;;
23300;SDS011;11819;51.394;12.340;2023-04-24T11:57:52;3.55;;;1.48;;
23300;SDS011;11819;51.394;12.340;2023-04-24T12:03:10;2.47;;;1.75;;
23300;SDS011;11819;51.394;12.340;2023-04-24T12:05:38;2.85;;;1.98;;
23300;SDS011;11819;51.394;12.340;2023-04-24T12:08:04;3.92;;;1.95;;
23300;SDS011;11819;51.394;12.340;2023-04-24T12:10:31;3.00;;;2.25;;
23300;SDS011;11819;51.394;12.340;2023-04-24T12:12:57;4.45;;;1.83;;
23300;SDS011;11819;51.394;12.340;2023-04-24T12:15:25;3.42;;;2.25;;
23300;SDS011;11819;51.394;12.340;2023-04-24T12:17:52;3.15;;;2.10;;
23300;SDS011;11819;51.394;12.340;2023-04-24T12:20:23;3.45;;;1.70;;
23300;SDS011;11819;51.394;12.340;2023-04-24T12:22:50;3.08;;;1.90;;
23300;SDS011;11819;51.394;12.340;2023-04-24T12:25:24;4.45;;;2.13;;
23300;SDS011;11819;51.394;12.340;2023-04-24T12:30:29;2.47;;;1.65;;
23300;SDS011;11819;51.394;12.340;2023-04-24T12:32:59;4.55;;;2.70;;
23300;SDS011;11819;51.394;12.340;2023-04-24T12:35:27;4.18;;;2.40;;
23300;SDS011;11819;51.394;12.340;2023-04-24T12:37:54;3.95;;;2.85;;
23300;SDS011;11819;51.394;12.340;2023-04-24T12:40:20;4.80;;;2.70;;
23300;SDS011;11819;51.394;12.340;2023-04-24T12:42:50;3.22;;;2.28;;
23300;SDS011;11819;51.394;12.340;2023-04-24T12:45:16;4.53;;;2.80;;
23300;SDS011;11819;51.394;12.340;2023-04-24T12:47:43;3.33;;;2.20;;
23300;SDS011;11819;51.394;12.340;2023-04-24T12:50:12;5.43;;;2.20;;
23300;SDS011;11819;51.394;12.340;2023-04-24T12:52:39;3.55;;;1.98;;
23300;SDS011;11819;51.394;12.340;2023-04-24T12:55:06;2.90;;;1.92;;
23300;SDS011;11819;51.394;12.340;2023-04-24T12:57:33;3.58;;;2.38;;
23300;SDS011;11819;51.394;12.340;2023-04-24T13:00:00;3.58;;;2.40;;
23300;SDS011;11819;51.394;12.340;2023-04-24T13:02:27;3.78;;;2.30;;
23300;SDS011;11819;51.394;12.340;2023-04-24T13:04:54;2.45;;;1.85;;
23300;SDS011;11819;51.394;12.340;2023-04-24T13:07:20;2.83;;;1.90;;
23300;SDS011;11819;51.394;12.340;2023-04-24T13:09:47;2.80;;;2.00;;
23300;SDS011;11819;51.394;12.340;2023-04-24T13:12:14;3.63;;;2.50;;
23300;SDS011;11819;51.394;12.340;2023-04-24T13:14:40;4.72;;;2.60;;
23300;SDS011;11819;51.394;12.340;2023-04-24T13:17:06;4.45;;;2.35;;
23300;SDS011;11819;51.394;12.340;2023-04-24T13:19:36;3.22;;;2.20;;
23300;SDS011;11819;51.394;12.340;2023-04-24T13:22:03;3.50;;;2.53;;
23300;SDS011;11819;51.394;12.340;2023-04-24T13:24:30;4.10;;;2.08;;
23300;SDS011;11819;51.394;12.340;2023-04-24T13:26:57;4.00;;;2.42;;
23300;SDS011;11819;51.394;12.340;2023-04-24T13:29:23;4.20;;;2.92;;
23300;SDS011;11819;51.394;12.340;2023-04-24T13:31:50;3.75;;;2.30;;
23300;SDS011;11819;51.394;12.340;2023-04-24T13:34:17;2.92;;;2.28;;
23300;SDS011;11819;51.394;12.340;2023-04-24T13:36:43;3.90;;;2.42;;
23300;SDS011;11819;51.394;12.340;2023-04-24T13:39:10;5.07;;;2.80;;
23300;SDS011;11819;51.394;12.340;2023-04-24T13:41:36;3.70;;;2.63;;
23300;SDS011;11819;51.394;12.340;2023-04-24T13:44:03;3.97;;;2.60;;
23300;SDS011;11819;51.394;12.340;2023-04-24T13:46:31;4.00;;;2.78;;
23300;SDS011;11819;51.394;12.340;2023-04-24T13:48:58;4.28;;;3.20;;
23300;SDS011;11819;51.394;12.340;2023-04-24T13:51:25;3.45;;;2.30;;
23300;SDS011;11819;51.394;12.340;2023-04-24T13:53:55;4.63;;;2.35;;
23300;SDS011;11819;51.394;12.340;2023-04-24T13:56:21;3.55;;;2.35;;
23300;SDS011;11819;51.394;12.340;2023-04-24T13:58:48;2.55;;;2.10;;
23300;SDS011;11819;51.394;12.340;2023-04-24T14:01:14;4.35;;;2.50;;
23300;SDS011;11819;51.394;12.340;2023-04-24T14:03:41;3.35;;;2.42;;
23300;SDS011;11819;51.394;12.340;2023-04-24T14:06:08;2.80;;;2.20;;
23300;SDS011;11819;51.394;12.340;2023-04-24T14:08:34;2.85;;;2.00;;
23300;SDS011;11819;51.394;12.340;2023-04-24T14:11:00;2.38;;;2.05;;
23300;SDS011;11819;51.394;12.340;2023-04-24T14:13:25;3.20;;;2.00;;
23300;SDS011;11819;51.394;12.340;2023-04-24T14:15:53;2.55;;;1.90;;
23300;SDS011;11819;51.394;12.340;2023-04-24T14:18:19;2.83;;;2.22;;
23300;SDS011;11819;51.394;12.340;2023-04-24T14:20:45;3.35;;;1.80;;
23300;SDS011;11819;51.394;12.340;2023-04-24T14:23:11;3.17;;;2.13;;
23300;SDS011;11819;51.394;12.340;2023-04-24T14:25:37;4.03;;;2.25;;
23300;SDS011;11819;51.394;12.340;2023-04-24T14:28:02;2.72;;;2.17;;
23300;SDS011;11819;51.394;12.340;2023-04-24T14:30:30;4.28;;;2.22;;
23300;SDS011;11819;51.394;12.340;2023-04-24T14:32:56;2.70;;;1.90;;
23300;SDS011;11819;51.394;12.340;2023-04-24T14:35:22;5.25;;;2.50;;
23300;SDS011;11819;51.394;12.340;2023-04-24T14:37:48;5.70;;;1.63;;
23300;SDS011;11819;51.394;12.340;2023-04-24T14:40:14;2.38;;;1.27;;
23300;SDS011;11819;51.394;12.340;2023-04-24T14:42:40;4.07;;;1.90;;
23300;SDS011;11819;51.394;12.340;2023-04-24T14:45:05;11.48;;;4.90;;
23300;SDS011;11819;51.394;12.340;2023-04-24T14:47:32;5.07;;;1.90;;